Terminal Aerodrome Forecast
Issued by NWS

Current Version | Previous Version | Text Only | Print | Product List | Glossary On
Versions: 1 2 3 4 5 6 7 8 9 10 11 12 13 14 15 16 17 18 19 20 21 22 23 24 25
000
FTUS43 KGRB 261600 AAC
TAFCWA
TAF AMD
KCWA 261639Z 2617/2712 02004KT 1/2SM FG OVC002
     FM261800 03004KT 2SM BR OVC004
     FM270100 02004KT 5SM BR OVC009
     FM270800 01005KT 2SM -SN BR OVC008
      TEMPO 2710/2712 1SM -SN BR=

USA.gov is the U.S. government's official web portal to all federal, state and local government web resources and services.